Time;durP1;ratioP1;P1;durP2;ratioP2;P2;SDS_P1;SDS_P2;PMS_P1;PMS_P2;Temp;Humidity;BMP_temperature;BMP_pressure;BME280_temperature;BME280_humidity;BME280_pressure;Samples;Min_cycle;Max_cycle;Signal;HPM_P1;HPM_P2
2022/12/05 00:01:21;;;;;;;64.30;43.67;;;;;;;2.33;92.97;101630.22;5113387;28;20160;-60
2022/12/05 00:03:49;;;;;;;60.05;43.25;;;;;;;2.23;93.44;101621.59;5112229;28;20031;-61
2022/12/05 00:06:18;;;;;;;67.90;44.60;;;;;;;2.26;93.28;101627.69;5112461;28;20034;-61
2022/12/05 00:08:45;;;;;;;64.07;44.92;;;;;;;2.23;93.40;101630.31;5113401;28;20038;-61
2022/12/05 00:11:22;;;;;;;63.67;45.53;;;;;;;2.31;93.37;101631.97;5110513;28;20165;-61
2022/12/05 00:13:48;;;;;;;66.07;45.08;;;;;;;2.20;93.86;101627.75;5092693;28;20031;-60
2022/12/05 00:16:16;;;;;;;64.35;46.63;;;;;;;2.21;93.38;101632.13;5109880;28;20020;-61
2022/12/05 00:18:42;;;;;;;65.22;45.97;;;;;;;2.21;93.46;101639.16;5093839;28;20020;-60
2022/12/05 00:21:16;;;;;;;64.93;44.22;;;;;;;2.24;94.03;101641.72;5126030;27;20038;-61
2022/12/05 00:23:42;;;;;;;69.28;47.38;;;;;;;2.31;94.08;101640.72;5089619;28;20031;-61
2022/12/05 00:26:08;;;;;;;70.20;47.05;;;;;;;2.26;94.23;101635.56;5097329;28;20368;-61
2022/12/05 00:28:34;;;;;;;66.55;45.63;;;;;;;2.26;94.28;101643.44;5127428;27;20062;-61
2022/12/05 00:31:04;;;;;;;70.60;46.67;;;;;;;2.18;94.65;101637.44;5106234;28;20051;-60
2022/12/05 00:33:29;;;;;;;66.13;45.72;;;;;;;2.21;94.70;101631.28;5113809;28;20023;-61
2022/12/05 00:35:59;;;;;;;68.72;47.78;;;;;;;2.24;94.84;101620.72;5112848;28;20023;-60
2022/12/05 00:38:25;;;;;;;66.93;46.58;;;;;;;2.25;94.25;101620.69;5094073;28;20426;-60
2022/12/05 00:40:50;;;;;;;65.95;46.80;;;;;;;2.30;94.36;101632.88;5096832;28;20039;-61
2022/12/05 00:43:18;;;;;;;73.57;47.90;;;;;;;2.30;94.02;101614.50;5082376;28;20119;-61
2022/12/05 00:45:43;;;;;;;67.82;48.50;;;;;;;2.28;94.36;101623.25;5073879;28;20126;-60
2022/12/05 00:48:09;;;;;;;67.15;46.85;;;;;;;2.26;94.81;101618.91;5091332;28;20131;-60
2022/12/05 00:50:34;;;;;;;69.53;47.72;;;;;;;2.30;94.70;101623.25;5090905;28;20035;-60
2022/12/05 00:53:00;;;;;;;67.47;47.53;;;;;;;2.34;94.78;101624.06;5100659;28;20028;-61
2022/12/05 00:55:25;;;;;;;71.00;48.45;;;;;;;2.29;94.89;101618.88;5125623;27;20451;-60
2022/12/05 00:57:50;;;;;;;69.80;46.75;;;;;;;2.35;95.03;101624.00;5096143;28;20036;-62
2022/12/05 01:00:17;;;;;;;67.18;47.15;;;;;;;2.27;94.64;101618.06;5097168;28;20034;-60
2022/12/05 01:02:42;;;;;;;69.47;48.90;;;;;;;2.37;94.52;101624.00;5094022;28;20479;-60
2022/12/05 01:05:08;;;;;;;67.40;48.65;;;;;;;2.29;94.82;101624.13;5091638;28;20056;-60
2022/12/05 01:07:37;;;;;;;65.80;47.25;;;;;;;2.30;94.97;101617.13;5093064;28;20036;-60
2022/12/05 01:10:02;;;;;;;66.63;47.47;;;;;;;2.30;94.73;101623.25;5072074;28;20060;-60
2022/12/05 01:12:28;;;;;;;72.53;50.97;;;;;;;2.33;94.88;101625.81;5091204;28;20970;-62
2022/12/05 01:14:54;;;;;;;71.82;48.15;;;;;;;2.36;94.80;101631.03;5094115;28;20019;-60
2022/12/05 01:17:19;;;;;;;68.05;47.83;;;;;;;2.38;94.87;101633.59;5125695;27;20031;-62
2022/12/05 01:19:44;;;;;;;70.22;48.65;;;;;;;2.39;95.06;101635.34;5091466;28;20158;-63
2022/12/05 01:22:10;;;;;;;70.03;48.25;;;;;;;2.42;95.23;101644.03;5092612;28;20031;-63
2022/12/05 01:24:35;;;;;;;70.43;47.35;;;;;;;2.40;94.62;101635.31;5092130;28;20452;-62
2022/12/05 01:27:01;;;;;;;74.95;47.85;;;;;;;2.42;95.06;101643.19;5092418;28;20054;-61
2022/12/05 01:29:26;;;;;;;68.63;47.05;;;;;;;2.41;94.75;101628.31;5095232;28;20486;-60
2022/12/05 01:31:53;;;;;;;66.03;48.08;;;;;;;2.47;94.93;101641.31;5108795;28;20027;-60
2022/12/05 01:34:19;;;;;;;71.70;49.00;;;;;;;2.45;94.56;101638.75;5112497;28;20031;-60
2022/12/05 01:36:44;;;;;;;66.20;47.50;;;;;;;2.43;94.73;101642.28;5112626;28;20501;-60
2022/12/05 01:39:11;;;;;;;71.78;49.17;;;;;;;2.45;94.83;101641.38;5111176;28;20056;-60
2022/12/05 01:41:43;;;;;;;67.15;49.33;;;;;;;2.46;94.74;101643.09;5111709;28;20080;-61
2022/12/05 01:44:11;;;;;;;67.43;48.88;;;;;;;2.50;94.83;101649.19;5110624;28;20475;-62
2022/12/05 01:46:46;;;;;;;71.82;48.45;;;;;;;2.49;94.93;101650.03;5072124;28;20112;-60
2022/12/05 01:49:19;;;;;;;66.00;47.75;;;;;;;2.49;94.68;101656.16;5071803;28;20025;-60
2022/12/05 01:51:48;;;;;;;64.80;48.10;;;;;;;2.45;94.99;101654.50;5091062;28;20042;-60
2022/12/05 01:54:15;;;;;;;69.20;46.80;;;;;;;2.54;94.67;101663.13;5090073;28;20077;-61
2022/12/05 01:56:49;;;;;;;65.95;46.75;;;;;;;2.56;94.18;101666.56;5092276;28;20073;-62
2022/12/05 01:59:16;;;;;;;67.70;46.95;;;;;;;2.54;94.41;101660.50;5092506;28;20179;-61
2022/12/05 02:01:44;;;;;;;68.32;48.25;;;;;;;2.60;94.73;101670.88;5104518;28;20470;-62
2022/12/05 02:04:09;;;;;;;68.70;46.35;;;;;;;2.57;94.37;101663.91;5091801;28;20054;-62
2022/12/05 02:06:35;;;;;;;64.90;48.22;;;;;;;2.59;94.31;101667.41;5090867;28;20542;-60
2022/12/05 02:09:01;;;;;;;71.13;48.72;;;;;;;2.62;94.49;101659.47;5092941;28;20648;-60
2022/12/05 02:11:29;;;;;;;62.58;46.13;;;;;;;2.55;94.74;101662.22;5093822;28;20425;-62
2022/12/05 02:14:22;;;;;;;64.25;48.85;;;;;;;2.59;94.56;101667.41;5091639;28;20442;-60
2022/12/05 02:17:20;;;;;;;64.07;47.00;;;;;;;2.59;95.35;101661.25;5091720;28;20498;-61
2022/12/05 02:19:53;;;;;;;65.32;47.47;;;;;;;2.57;94.81;101670.94;5097995;28;20027;-60
2022/12/05 02:22:37;;;;;;;66.85;45.72;;;;;;;2.61;94.92;101668.22;5091468;28;20024;-60
2022/12/05 02:25:20;;;;;;;70.13;48.60;;;;;;;2.54;94.79;101658.72;5090470;28;20064;-61
2022/12/05 02:28:08;;;;;;;66.05;47.80;;;;;;;2.56;95.00;101662.19;5091834;28;20035;-60
2022/12/05 02:31:09;;;;;;;67.88;47.00;;;;;;;2.61;95.25;101660.34;5096129;28;20054;-60
2022/12/05 02:34:23;;;;;;;67.90;47.85;;;;;;;2.62;94.89;101658.59;5083974;28;20063;-61
2022/12/05 02:37:02;;;;;;;64.80;47.38;;;;;;;2.55;94.96;101654.34;5089524;28;20055;-62
2022/12/05 02:39:37;;;;;;;63.50;46.97;;;;;;;2.56;95.43;101653.44;5099736;28;20031;-60
2022/12/05 02:42:14;;;;;;;72.07;48.60;;;;;;;2.55;95.53;101654.34;5101084;27;20440;-61
2022/12/05 02:44:55;;;;;;;70.15;48.10;;;;;;;2.53;95.68;101649.13;5097919;28;20085;-61
2022/12/05 02:47:26;;;;;;;68.13;49.70;;;;;;;2.49;95.80;101652.69;5098063;28;20028;-61
2022/12/05 02:49:56;;;;;;;71.43;48.78;;;;;;;2.51;96.28;101653.53;5098222;28;20130;-60
2022/12/05 02:52:24;;;;;;;66.57;48.55;;;;;;;2.60;95.81;101649.88;5109772;28;20056;-61
2022/12/05 02:54:53;;;;;;;67.65;48.10;;;;;;;2.61;96.06;101647.22;5097653;28;20101;-60
2022/12/05 02:57:21;;;;;;;68.78;46.20;;;;;;;2.64;95.78;101655.03;5099181;28;20444;-60
2022/12/05 02:59:46;;;;;;;67.63;48.75;;;;;;;2.61;95.55;101659.47;5098064;28;20109;-60
2022/12/05 03:02:24;;;;;;;64.32;46.53;;;;;;;2.58;95.94;101660.38;5099110;28;20067;-61
2022/12/05 03:04:49;;;;;;;68.47;48.22;;;;;;;2.57;95.83;101657.81;5097753;28;20024;-62
2022/12/05 03:07:18;;;;;;;66.72;49.25;;;;;;;2.63;95.71;101668.22;5097893;28;20058;-60
2022/12/05 03:10:06;;;;;;;65.70;47.55;;;;;;;2.58;96.16;101660.38;5098228;28;20020;-61
2022/12/05 03:12:41;;;;;;;67.80;48.53;;;;;;;2.56;95.73;101666.56;5077726;28;20351;-60
2022/12/05 03:15:30;;;;;;;68.30;47.67;;;;;;;2.56;95.87;101661.31;5076684;28;20012;-61
2022/12/05 03:18:09;;;;;;;66.88;48.30;;;;;;;2.53;96.11;101658.72;5094646;28;20032;-61
2022/12/05 03:20:50;;;;;;;66.20;46.80;;;;;;;2.55;96.04;101651.72;5088172;28;20047;-61
2022/12/05 03:23:38;;;;;;;69.13;48.17;;;;;;;2.58;96.88;101657.75;5100544;28;20541;-61
2022/12/05 03:26:20;;;;;;;72.13;48.78;;;;;;;2.52;96.92;101654.38;5100993;28;20032;-61
2022/12/05 03:29:11;;;;;;;66.40;45.55;;;;;;;2.59;97.18;101661.25;5103190;28;20472;-62
2022/12/05 03:31:56;;;;;;;70.68;49.20;;;;;;;2.56;96.92;101654.31;5087830;28;20036;-62
2022/12/05 03:34:38;;;;;;;69.38;48.40;;;;;;;2.55;97.35;101654.34;5096401;28;20023;-62
2022/12/05 03:37:13;;;;;;;73.53;49.53;;;;;;;2.59;96.69;101654.28;5096533;28;20518;-62
2022/12/05 03:39:46;;;;;;;67.95;46.90;;;;;;;2.61;96.75;101652.47;5095899;28;20060;-60
2022/12/05 03:42:17;;;;;;;70.97;48.83;;;;;;;2.58;96.53;101659.53;5095236;28;20425;-61
2022/12/05 03:44:50;;;;;;;74.15;50.10;;;;;;;2.61;96.40;101651.59;5074768;28;20056;-61
2022/12/05 03:47:23;;;;;;;70.68;47.88;;;;;;;2.62;96.88;101653.34;5074863;28;20032;-61
2022/12/05 03:49:55;;;;;;;65.93;48.45;;;;;;;2.58;97.16;101652.50;5078936;28;20087;-62
2022/12/05 03:52:33;;;;;;;69.00;48.05;;;;;;;2.60;96.82;101648.13;5080353;28;20028;-61
2022/12/05 03:55:07;;;;;;;70.70;49.70;;;;;;;2.64;97.53;101652.41;5085153;28;20648;-61
2022/12/05 03:57:50;;;;;;;77.22;49.00;;;;;;;2.66;97.10;101652.41;5073891;28;20035;-61
2022/12/05 04:00:21;;;;;;;73.97;49.22;;;;;;;2.64;96.93;101660.28;5075759;28;20374;-61
2022/12/05 04:03:09;;;;;;;67.55;47.10;;;;;;;2.63;97.04;101658.56;5094126;27;20039;-61
2022/12/05 04:05:43;;;;;;;73.28;48.90;;;;;;;2.60;96.99;101647.25;5093635;28;20417;-62
2022/12/05 04:08:22;;;;;;;72.22;48.72;;;;;;;2.69;96.95;101665.47;5079437;28;20043;-60
2022/12/05 04:10:50;;;;;;;70.07;48.42;;;;;;;2.62;96.99;101654.22;5096187;28;20110;-61
2022/12/05 04:13:31;;;;;;;65.07;46.17;;;;;;;2.65;97.42;101667.28;5073876;28;20475;-61
2022/12/05 04:19:20;;;;;;;65.10;47.63;;;;;;;2.72;97.39;101668.91;5073788;28;20043;-60
2022/12/05 04:21:51;;;;;;;66.70;46.53;;;;;;;2.67;97.15;101665.47;5087537;28;20103;-60
2022/12/05 04:27:14;;;;;;;64.25;46.75;;;;;;;2.68;96.89;101667.25;5074141;28;20107;-61
2022/12/05 04:30:05;;;;;;;67.43;46.67;;;;;;;2.74;97.71;101668.91;5074011;28;20543;-61
2022/12/05 04:33:08;;;;;;;63.42;46.80;;;;;;;2.71;97.59;101671.56;5076580;28;20024;-61
2022/12/05 04:35:53;;;;;;;64.78;46.90;;;;;;;2.67;97.42;101672.50;5073915;28;20041;-60
2022/12/05 04:38:40;;;;;;;64.75;46.03;;;;;;;2.69;97.88;101671.59;5073539;28;20083;-61
2022/12/05 04:41:12;;;;;;;69.63;45.25;;;;;;;2.67;97.80;101669.88;5079966;28;20047;-61
2022/12/05 04:43:40;;;;;;;63.25;46.95;;;;;;;2.72;97.88;101668.91;5096406;28;20067;-61
2022/12/05 04:46:10;;;;;;;59.88;44.13;;;;;;;2.67;98.29;101670.75;5073658;28;20025;-61
2022/12/05 04:48:39;;;;;;;64.32;46.20;;;;;;;2.69;98.02;101673.34;5073431;28;20032;-61
2022/12/05 04:51:08;;;;;;;64.47;46.17;;;;;;;2.65;98.44;101675.16;5091452;28;20028;-60
2022/12/05 04:53:35;;;;;;;66.85;46.03;;;;;;;2.65;98.84;101664.66;5119285;27;20024;-61
2022/12/05 04:56:03;;;;;;;68.90;47.45;;;;;;;2.64;98.90;101672.56;5093180;28;20028;-61
2022/12/05 04:58:30;;;;;;;64.70;47.17;;;;;;;2.65;99.02;101677.78;5093025;28;20064;-60
2022/12/05 05:01:08;;;;;;;65.38;46.47;;;;;;;2.68;99.75;101669.00;5094155;28;20028;-60
2022/12/05 05:03:40;;;;;;;63.53;47.17;;;;;;;2.65;98.69;101671.69;5106682;27;20032;-60
2022/12/05 05:06:06;;;;;;;67.30;45.28;;;;;;;2.66;99.59;101674.28;5095667;28;20038;-59
2022/12/05 05:08:32;;;;;;;59.80;46.00;;;;;;;2.65;99.68;101669.91;5096019;28;20036;-60
2022/12/05 05:11:00;;;;;;;68.38;45.30;;;;;;;2.69;99.89;101675.97;5102851;28;20031;-62
2022/12/05 05:13:26;;;;;;;67.22;47.38;;;;;;;2.64;99.60;101675.19;5096501;28;20123;-61
2022/12/05 05:15:51;;;;;;;63.22;46.55;;;;;;;2.71;99.73;101677.69;5092921;28;20115;-60
2022/12/05 05:18:17;;;;;;;63.25;46.22;;;;;;;2.73;100.00;101685.53;5091282;28;20027;-60
2022/12/05 05:20:42;;;;;;;65.60;46.53;;;;;;;2.73;99.98;101690.78;5097102;28;20470;-61
2022/12/05 05:23:08;;;;;;;62.70;45.33;;;;;;;2.71;99.89;101689.97;5098282;28;20028;-60
2022/12/05 05:25:34;;;;;;;65.30;46.80;;;;;;;2.75;100.00;101694.25;5075244;28;20479;-62
2022/12/05 05:28:00;;;;;;;64.95;45.55;;;;;;;2.78;100.00;101685.47;5091260;28;20035;-60
2022/12/05 05:30:28;;;;;;;63.25;45.55;;;;;;;2.77;100.00;101691.63;5092657;28;20437;-62
2022/12/05 05:32:53;;;;;;;64.93;45.60;;;;;;;2.81;99.99;101696.78;5092189;28;20023;-61
2022/12/05 05:35:19;;;;;;;66.32;46.47;;;;;;;2.75;100.00;101688.13;5074418;28;20089;-61
2022/12/05 05:37:45;;;;;;;65.15;46.40;;;;;;;2.75;100.00;101682.88;5092531;28;20106;-62
2022/12/05 05:40:11;;;;;;;67.65;46.72;;;;;;;2.79;100.00;101680.16;5091633;28;20040;-61
2022/12/05 05:42:50;;;;;;;64.13;44.60;;;;;;;2.80;99.88;101688.94;5103876;28;20038;-61
2022/12/05 05:45:15;;;;;;;64.05;45.35;;;;;;;2.78;100.00;101683.69;5112196;28;20031;-61
2022/12/05 05:47:41;;;;;;;65.28;46.38;;;;;;;2.82;100.00;101687.13;5111171;28;20466;-61
2022/12/05 05:50:07;;;;;;;64.30;46.97;;;;;;;2.76;100.00;101689.88;5112741;28;20462;-60
2022/12/05 05:52:35;;;;;;;62.10;44.63;;;;;;;2.78;100.00;101694.19;5093388;28;20058;-60
2022/12/05 05:55:03;;;;;;;60.00;42.55;;;;;;;2.80;100.00;101695.06;5095525;28;20024;-60
2022/12/05 05:57:32;;;;;;;63.00;43.78;;;;;;;2.70;100.00;101683.81;5090845;28;20036;-62
2022/12/05 05:59:57;;;;;;;60.58;44.60;;;;;;;2.83;100.00;101691.50;5090624;28;20071;-61
2022/12/05 06:02:32;;;;;;;64.45;45.45;;;;;;;2.77;100.00;101703.00;5091530;28;20111;-60
2022/12/05 06:04:57;;;;;;;58.40;42.92;;;;;;;2.70;100.00;101689.06;5089910;28;20028;-61
2022/12/05 06:07:22;;;;;;;63.25;43.95;;;;;;;2.75;100.00;101698.66;5090550;28;20541;-60
2022/12/05 06:09:48;;;;;;;61.90;44.65;;;;;;;2.69;100.00;101695.22;5091254;28;20039;-60
2022/12/05 06:12:13;;;;;;;61.40;43.08;;;;;;;2.79;100.00;101705.56;5093028;28;20486;-60
2022/12/05 06:14:41;;;;;;;56.38;42.15;;;;;;;2.81;100.00;101702.03;5090757;28;20043;-61
2022/12/05 06:17:06;;;;;;;60.83;43.42;;;;;;;2.77;100.00;101689.84;5091237;28;20046;-60
2022/12/05 06:19:32;;;;;;;60.35;44.25;;;;;;;2.87;100.00;101701.91;5073641;28;20040;-61
2022/12/05 06:21:57;;;;;;;59.15;43.13;;;;;;;2.83;100.00;101700.25;5092478;28;20040;-60
2022/12/05 06:24:23;;;;;;;55.20;41.22;;;;;;;2.87;100.00;101703.69;5091032;28;20391;-60
2022/12/05 06:26:48;;;;;;;59.85;43.42;;;;;;;2.89;100.00;101705.41;5094817;28;20069;-61
2022/12/05 06:29:14;;;;;;;58.33;41.97;;;;;;;2.95;100.00;101709.69;5091646;28;20041;-61
2022/12/05 06:31:40;;;;;;;56.28;40.72;;;;;;;2.93;100.00;101714.09;5093809;28;20490;-61
2022/12/05 06:34:05;;;;;;;55.92;41.83;;;;;;;2.88;100.00;101701.06;5091549;28;20447;-61
2022/12/05 06:36:31;;;;;;;60.60;43.30;;;;;;;2.96;100.00;101707.00;5073189;28;20055;-61
2022/12/05 06:38:57;;;;;;;63.20;44.60;;;;;;;2.93;100.00;101708.84;5113486;27;20039;-60
2022/12/05 06:41:26;;;;;;;56.00;40.30;;;;;;;2.96;100.00;101714.88;5091725;28;20051;-61
2022/12/05 06:43:56;;;;;;;57.70;42.25;;;;;;;2.97;100.00;101715.75;5093017;28;20038;-61
2022/12/05 06:46:22;;;;;;;57.65;43.13;;;;;;;2.99;100.00;101710.50;5090305;28;20150;-61
2022/12/05 06:48:47;;;;;;;60.03;42.67;;;;;;;2.92;100.00;101702.72;5089944;28;20047;-61
2022/12/05 06:51:16;;;;;;;57.60;40.88;;;;;;;2.94;100.00;101711.44;5095115;28;20492;-60
2022/12/05 06:53:44;;;;;;;56.67;42.05;;;;;;;2.91;100.00;101703.63;5111372;28;20047;-61
2022/12/05 06:56:13;;;;;;;58.33;41.78;;;;;;;2.91;100.00;101705.34;5110514;28;20398;-61
2022/12/05 06:58:39;;;;;;;60.95;42.45;;;;;;;2.99;100.00;101710.50;5111119;28;20031;-61
2022/12/05 07:03:52;;;;;;;59.90;43.10;;;;;;;2.97;100.00;101718.38;5111864;28;20567;-61
2022/12/05 07:06:18;;;;;;;55.92;40.55;;;;;;;2.91;100.00;101715.84;5111174;28;20052;-61
2022/12/05 07:08:43;;;;;;;55.40;40.88;;;;;;;3.05;100.00;101724.38;5110248;28;20059;-61
2022/12/05 07:11:09;;;;;;;56.10;41.95;;;;;;;2.96;100.00;101717.53;5109853;28;20042;-61
2022/12/05 07:13:34;;;;;;;55.17;40.28;;;;;;;2.97;100.00;101728.88;5111530;28;20211;-60
2022/12/05 07:16:00;;;;;;;52.13;39.85;;;;;;;2.93;100.00;101724.59;5093484;28;20466;-61
2022/12/05 07:18:26;;;;;;;58.33;40.30;;;;;;;3.01;100.00;101732.34;5096948;28;20034;-61
2022/12/05 07:21:03;;;;;;;50.55;38.70;;;;;;;3.06;100.00;101739.28;5098559;28;20028;-61
2022/12/05 07:23:28;;;;;;;55.60;40.40;;;;;;;3.04;100.00;101741.03;5092610;28;20533;-61
2022/12/05 07:25:54;;;;;;;53.20;39.47;;;;;;;3.01;100.00;101745.50;5102550;28;20034;-61
2022/12/05 07:28:20;;;;;;;52.05;38.40;;;;;;;3.05;100.00;101750.66;5107096;28;20089;-61
2022/12/05 07:30:47;;;;;;;49.00;37.63;;;;;;;3.10;100.00;101755.84;5083517;28;20111;-61
2022/12/05 07:33:13;;;;;;;49.83;37.67;;;;;;;3.03;100.00;101751.56;5103138;27;20028;-61
2022/12/05 07:35:38;;;;;;;50.40;38.03;;;;;;;3.06;100.00;101762.03;5077312;28;20023;-62
2022/12/05 07:38:05;;;;;;;48.83;37.60;;;;;;;3.09;100.00;101757.63;5094237;28;20031;-62
2022/12/05 07:40:30;;;;;;;48.90;37.75;;;;;;;3.07;100.00;101753.28;5128481;27;20518;-62
2022/12/05 07:42:56;;;;;;;49.63;37.40;;;;;;;3.05;100.00;101760.31;5093834;28;20028;-61
2022/12/05 07:45:21;;;;;;;48.83;36.38;;;;;;;3.04;100.00;101748.06;5095727;28;20093;-61
2022/12/05 07:47:47;;;;;;;48.90;36.83;;;;;;;3.04;100.00;101750.69;5107646;28;20103;-60
2022/12/05 07:50:13;;;;;;;50.22;36.92;;;;;;;3.08;100.00;101762.88;5100266;28;20031;-61
2022/12/05 07:52:42;;;;;;;47.72;36.22;;;;;;;3.08;100.00;101757.63;5095510;28;20114;-61
2022/12/05 07:55:07;;;;;;;47.08;36.45;;;;;;;3.13;100.00;101758.41;5091443;28;20305;-60
2022/12/05 07:57:33;;;;;;;45.17;35.95;;;;;;;3.07;100.00;101762.03;5087688;28;20062;-60
2022/12/05 08:00:01;;;;;;;46.53;35.33;;;;;;;3.08;100.00;101770.75;5084581;28;20103;-61
2022/12/05 08:02:34;;;;;;;47.63;35.88;;;;;;;3.04;100.00;101764.69;5093277;28;20032;-61
2022/12/05 08:04:59;;;;;;;47.85;36.35;;;;;;;3.08;100.00;101768.13;5092284;28;20063;-62
2022/12/05 08:07:25;;;;;;;47.47;35.80;;;;;;;3.08;100.00;101765.50;5087361;28;20120;-61
2022/12/05 08:09:50;;;;;;;48.08;36.22;;;;;;;3.03;100.00;101770.84;5085715;28;20099;-62
2022/12/05 08:12:16;;;;;;;49.10;36.10;;;;;;;3.06;100.00;101765.56;5092798;28;20510;-62
2022/12/05 08:14:41;;;;;;;50.75;38.40;;;;;;;3.06;100.00;101778.69;5093120;28;20024;-62
2022/12/05 08:17:07;;;;;;;47.83;35.88;;;;;;;3.09;100.00;101783.00;5103537;28;20031;-62
2022/12/05 08:19:34;;;;;;;47.05;36.38;;;;;;;3.12;100.00;101791.72;5094697;28;20401;-62
2022/12/05 08:22:00;;;;;;;49.90;37.42;;;;;;;3.13;100.00;101790.81;5099655;28;20092;-61
2022/12/05 08:24:25;;;;;;;47.72;37.30;;;;;;;3.12;100.00;101796.13;5096855;28;20024;-62
2022/12/05 08:26:51;;;;;;;45.55;35.97;;;;;;;3.13;100.00;101795.22;5108960;28;20386;-62
2022/12/05 08:29:20;;;;;;;47.08;36.13;;;;;;;3.16;100.00;101801.28;5084228;28;20494;-61
2022/12/05 08:31:48;;;;;;;46.03;34.80;;;;;;;3.22;100.00;101804.69;5121517;27;20031;-61
2022/12/05 08:34:15;;;;;;;51.95;37.47;;;;;;;3.20;100.00;101794.19;5094201;28;20020;-62
2022/12/05 08:36:41;;;;;;;49.20;36.15;;;;;;;3.19;100.00;101801.22;5094680;28;20098;-62
2022/12/05 08:39:13;;;;;;;46.17;35.97;;;;;;;3.18;100.00;101803.91;5086836;28;20561;-61
2022/12/05 08:41:38;;;;;;;45.78;35.83;;;;;;;3.19;100.00;101801.22;5091879;28;20023;-63
2022/12/05 08:44:05;;;;;;;46.03;35.35;;;;;;;3.18;100.00;101803.91;5098592;28;20436;-62
2022/12/05 08:46:32;;;;;;;46.08;34.47;;;;;;;3.16;100.00;101803.03;5092919;28;20034;-62
2022/12/05 08:48:58;;;;;;;48.60;36.90;;;;;;;3.23;100.00;101799.41;5092750;28;20061;-62
2022/12/05 08:51:23;;;;;;;49.42;36.13;;;;;;;3.24;100.00;101795.91;5092705;28;20031;-62
2022/12/05 08:53:48;;;;;;;47.40;35.55;;;;;;;3.25;100.00;101800.25;5097592;28;20607;-62
2022/12/05 08:56:14;;;;;;;45.90;35.45;;;;;;;3.25;100.00;101802.03;5091991;28;20028;-61
2022/12/05 08:58:40;;;;;;;48.58;35.67;;;;;;;3.25;100.00;101809.91;5073712;28;20467;-62
2022/12/05 09:01:17;;;;;;;50.30;35.42;;;;;;;3.27;100.00;101814.25;5092577;28;20106;-61
2022/12/05 09:03:43;;;;;;;44.28;33.83;;;;;;;3.28;100.00;101815.13;5090968;28;20070;-61
2022/12/05 09:06:16;;;;;;;47.15;36.35;;;;;;;3.29;100.00;101820.31;5093227;28;20475;-61
2022/12/05 09:08:43;;;;;;;46.53;35.53;;;;;;;3.31;100.00;101821.19;5091630;28;20024;-62
2022/12/05 09:11:14;;;;;;;47.17;35.17;;;;;;;3.24;100.00;101824.81;5093416;28;20370;-61
2022/12/05 09:13:40;;;;;;;49.28;34.95;;;;;;;3.28;100.00;101821.22;5086244;28;20472;-62
2022/12/05 09:16:14;;;;;;;43.83;34.60;;;;;;;3.32;100.00;101824.66;5088025;28;20193;-61
2022/12/05 09:18:41;;;;;;;47.10;34.25;;;;;;;3.31;100.00;101825.56;5091124;28;20031;-62
2022/12/05 09:21:12;;;;;;;44.63;34.33;;;;;;;3.33;100.00;101834.31;5098511;28;20035;-62
2022/12/05 09:23:38;;;;;;;43.63;34.65;;;;;;;3.35;100.00;101836.03;5086561;28;20030;-61
2022/12/05 09:26:06;;;;;;;41.83;33.22;;;;;;;3.32;100.00;101833.41;5102968;27;20073;-62
2022/12/05 09:28:32;;;;;;;45.33;34.83;;;;;;;3.32;100.00;101836.03;5082277;28;20495;-62
2022/12/05 09:31:00;;;;;;;45.38;35.72;;;;;;;3.38;100.00;101842.97;5101221;28;20028;-62
2022/12/05 09:33:27;;;;;;;46.38;33.97;;;;;;;3.41;100.00;101843.81;5091517;28;20497;-62
2022/12/05 09:35:55;;;;;;;43.90;33.30;;;;;;;3.38;100.00;101843.84;5096109;28;20016;-61
2022/12/05 09:38:23;;;;;;;43.20;34.00;;;;;;;3.42;100.00;101842.03;5089906;28;20020;-62
2022/12/05 09:41:14;;;;;;;44.97;33.90;;;;;;;3.50;100.00;101848.03;5099941;28;20043;-62
2022/12/05 09:43:49;;;;;;;44.10;34.25;;;;;;;3.44;100.00;101848.13;5080273;28;20513;-61
2022/12/05 09:46:47;;;;;;;40.42;32.10;;;;;;;3.48;100.00;101848.94;5097985;28;20060;-62
2022/12/05 09:49:12;;;;;;;42.20;32.05;;;;;;;3.45;100.00;101851.63;5131451;27;20036;-62
2022/12/05 09:51:42;;;;;;;41.47;32.30;;;;;;;3.44;100.00;101853.38;5091724;28;20092;-62
2022/12/05 09:54:10;;;;;;;37.97;30.85;;;;;;;3.44;100.00;101860.41;5092152;28;20024;-62
2022/12/05 09:56:37;;;;;;;38.33;31.08;;;;;;;3.44;100.00;101857.78;5086032;28;20149;-61
2022/12/05 09:59:04;;;;;;;34.97;28.85;;;;;;;3.46;100.00;101858.63;5091786;28;20405;-62
2022/12/05 10:01:40;;;;;;;36.65;29.00;;;;;;;3.46;100.00;101853.38;5091004;28;20054;-62
2022/12/05 10:04:30;;;;;;;36.75;29.17;;;;;;;3.48;100.00;101862.09;5094119;28;20023;-61
2022/12/05 10:07:16;;;;;;;33.75;27.17;;;;;;;3.41;100.00;101850.81;5090697;28;20040;-62
2022/12/05 10:10:06;;;;;;;33.63;27.60;;;;;;;3.44;100.00;101848.13;5085317;28;20059;-61
2022/12/05 10:12:44;;;;;;;32.25;26.67;;;;;;;3.47;100.00;101858.63;5091078;28;20034;-62
2022/12/05 10:15:12;;;;;;;31.67;26.02;;;;;;;3.51;99.91;101844.50;5102511;28;20027;-61
2022/12/05 10:17:41;;;;;;;34.05;25.88;;;;;;;3.55;99.84;101858.47;5112221;28;20107;-61
2022/12/05 10:20:15;;;;;;;30.52;24.92;;;;;;;3.51;99.54;101854.16;5112113;28;20379;-61
2022/12/05 10:22:49;;;;;;;28.02;24.80;;;;;;;3.54;99.89;101849.72;5110670;28;20024;-62
2022/12/05 10:25:20;;;;;;;29.77;24.95;;;;;;;3.52;99.69;101838.34;5102311;28;20032;-61
2022/12/05 10:27:58;;;;;;;27.58;24.40;;;;;;;3.54;100.00;101844.44;5091921;28;20111;-62
2022/12/05 10:30:30;;;;;;;25.88;23.05;;;;;;;3.53;99.61;101854.97;5091597;28;20433;-62
2022/12/05 10:33:03;;;;;;;25.98;22.55;;;;;;;3.53;99.48;101858.50;5091749;28;20020;-61
2022/12/05 10:35:35;;;;;;;23.73;20.77;;;;;;;3.45;98.23;101856.91;5092766;28;20572;-61
2022/12/05 10:38:30;;;;;;;25.77;23.02;;;;;;;3.54;98.86;101859.38;5111442;28;20027;-62
2022/12/05 10:41:04;;;;;;;25.42;22.05;;;;;;;3.48;99.11;101855.06;5095960;28;20122;-62
2022/12/05 10:43:33;;;;;;;27.38;22.40;;;;;;;3.42;98.76;101852.56;5111708;28;20512;-62
2022/12/05 10:46:01;;;;;;;24.33;21.52;;;;;;;3.45;99.13;101847.25;5112012;28;20110;-61
2022/12/05 10:48:28;;;;;;;25.45;22.67;;;;;;;3.47;98.36;101847.19;5110909;28;20092;-61
2022/12/05 10:50:56;;;;;;;25.60;22.80;;;;;;;3.54;99.05;101857.59;5106014;28;20461;-62
2022/12/05 10:53:28;;;;;;;27.90;23.92;;;;;;;3.52;99.37;101864.63;5115237;28;20544;-62
2022/12/05 10:55:54;;;;;;;28.92;23.13;;;;;;;3.57;99.17;101861.94;5115801;28;20081;-61
2022/12/05 10:58:29;;;;;;;27.70;24.80;;;;;;;3.56;99.75;101855.81;5097054;28;20040;-62
2022/12/05 11:01:07;;;;;;;25.35;22.65;;;;;;;3.57;99.00;101854.03;5095575;28;20475;-61
2022/12/05 11:03:36;;;;;;;25.52;22.70;;;;;;;3.56;98.42;101862.81;5075039;28;20048;-61
2022/12/05 11:06:26;;;;;;;26.45;23.52;;;;;;;3.62;99.25;101849.59;5075788;28;20056;-61
2022/12/05 11:08:53;;;;;;;27.48;24.65;;;;;;;3.68;99.43;101845.94;5095083;28;20088;-61
2022/12/05 11:11:24;;;;;;;25.10;22.20;;;;;;;3.58;99.10;101840.00;5095678;28;20028;-63
2022/12/05 11:13:53;;;;;;;27.92;22.85;;;;;;;3.64;98.58;101842.50;5115511;28;20024;-64
2022/12/05 11:16:29;;;;;;;27.33;23.43;;;;;;;3.56;98.49;101826.88;5113720;28;20059;-62
2022/12/05 11:18:55;;;;;;;23.80;21.30;;;;;;;3.64;98.46;101843.38;5102363;28;20285;-63
2022/12/05 11:21:21;;;;;;;23.83;21.20;;;;;;;3.73;98.33;101839.69;5094659;28;20042;-63
2022/12/05 11:23:47;;;;;;;23.85;21.38;;;;;;;3.70;98.14;101838.91;5094757;28;20508;-63
2022/12/05 11:26:34;;;;;;;26.85;21.67;;;;;;;3.79;98.51;101842.22;5094851;28;20050;-63
2022/12/05 11:29:03;;;;;;;21.92;19.65;;;;;;;3.76;96.90;101841.41;5103149;28;20454;-63
2022/12/05 11:31:31;;;;;;;21.30;19.10;;;;;;;3.75;96.95;101840.56;5115393;28;20038;-63
2022/12/05 11:34:16;;;;;;;22.35;20.00;;;;;;;3.76;96.88;101834.38;5115032;28;20368;-62
2022/12/05 11:36:53;;;;;;;21.02;18.83;;;;;;;3.80;96.75;101837.84;5114532;28;20076;-62
2022/12/05 11:39:19;;;;;;;21.30;19.05;;;;;;;3.81;96.53;101831.69;5094985;28;20055;-62